createdAt,value
2022-12-28T00:00:33.769Z,3.25
2022-12-28T00:01:37.354Z,3.00
2022-12-28T00:02:40.910Z,2.00
2022-12-28T00:03:44.789Z,3.00
2022-12-28T00:04:48.684Z,3.00
2022-12-28T00:05:52.352Z,2.00
2022-12-28T00:06:56.029Z,1.75
2022-12-28T00:07:59.747Z,1.50
2022-12-28T00:09:03.533Z,2.50
2022-12-28T00:10:07.344Z,3.00
2022-12-28T00:11:18.700Z,2.25
2022-12-28T00:12:16.005Z,2.00
2022-12-28T00:13:19.807Z,2.50
2022-12-28T00:14:23.670Z,3.25
2022-12-28T00:15:27.363Z,3.00
2022-12-28T00:16:31.123Z,2.50
2022-12-28T00:17:35.094Z,3.00
2022-12-28T00:18:38.779Z,2.75
2022-12-28T00:19:42.490Z,3.00
2022-12-28T00:20:46.233Z,3.25
2022-12-28T00:21:49.856Z,2.75
2022-12-28T00:22:53.830Z,3.75
2022-12-28T00:23:58.347Z,3.00
2022-12-28T00:25:02.298Z,3.00
2022-12-28T00:26:06.051Z,2.75
2022-12-28T00:27:09.782Z,3.00
2022-12-28T00:28:13.471Z,3.50
2022-12-28T00:29:17.163Z,3.50
2022-12-28T00:30:20.821Z,2.25
2022-12-28T00:31:24.594Z,2.75
2022-12-28T00:32:28.252Z,3.00
2022-12-28T00:33:31.978Z,1.75
2022-12-28T00:34:35.733Z,2.50
2022-12-28T00:35:39.630Z,3.00
2022-12-28T00:37:08.790Z,3.00
2022-12-28T00:37:48.297Z,3.50
2022-12-28T00:38:52.047Z,3.25
2022-12-28T00:39:56.043Z,3.00
2022-12-28T00:40:59.677Z,3.00
2022-12-28T00:42:03.151Z,2.50
2022-12-28T00:43:06.567Z,3.00
2022-12-28T00:44:09.934Z,3.50
2022-12-28T00:45:13.445Z,2.75
2022-12-28T00:46:16.824Z,3.00
2022-12-28T00:47:20.355Z,2.75
2022-12-28T00:48:23.683Z,3.00
2022-12-28T00:49:27.177Z,2.00
2022-12-28T00:50:30.585Z,2.50
2022-12-28T00:51:34.054Z,3.00
2022-12-28T00:52:37.537Z,2.50
2022-12-28T00:53:41.028Z,2.50
2022-12-28T00:54:44.387Z,3.50
2022-12-28T00:55:47.934Z,3.50
2022-12-28T00:56:51.317Z,3.00
2022-12-28T00:57:54.766Z,2.00
2022-12-28T00:58:58.176Z,2.50
2022-12-28T01:00:01.722Z,3.00
2022-12-28T01:01:05.243Z,2.75
2022-12-28T01:02:08.948Z,3.00
2022-12-28T01:03:12.754Z,2.00
2022-12-28T01:04:16.591Z,2.00
2022-12-28T01:05:20.327Z,3.25
2022-12-28T01:06:24.025Z,2.75
2022-12-28T01:07:27.761Z,2.50
2022-12-28T01:08:31.481Z,3.25
2022-12-28T01:09:35.188Z,3.50
2022-12-28T01:10:38.880Z,3.75
2022-12-28T01:11:42.602Z,3.75
2022-12-28T01:12:46.318Z,2.75
2022-12-28T01:13:50.119Z,1.75
2022-12-28T01:14:53.871Z,2.50
2022-12-28T01:15:57.555Z,3.00
2022-12-28T01:17:01.256Z,3.50
2022-12-28T01:18:05.192Z,3.50
2022-12-28T01:19:09.539Z,3.00
2022-12-28T01:20:13.206Z,2.50
2022-12-28T01:21:16.887Z,2.00
2022-12-28T01:22:20.637Z,1.75
2022-12-28T01:23:24.487Z,3.00
2022-12-28T01:24:28.060Z,2.00
2022-12-28T01:25:31.905Z,3.75
2022-12-28T01:26:35.730Z,3.00
2022-12-28T01:27:39.436Z,2.25
2022-12-28T01:28:43.085Z,2.00
2022-12-28T01:29:46.824Z,1.75
2022-12-28T01:30:50.479Z,2.50
2022-12-28T01:31:54.240Z,3.00
2022-12-28T01:32:58.029Z,2.75
2022-12-28T01:34:01.731Z,3.50
2022-12-28T01:35:05.548Z,2.25
2022-12-28T01:36:09.219Z,3.00
2022-12-28T01:37:12.806Z,3.25
2022-12-28T01:38:16.518Z,3.25
2022-12-28T01:39:20.028Z,2.50
2022-12-28T01:40:23.701Z,2.50
2022-12-28T01:41:27.156Z,2.75
2022-12-28T01:42:30.602Z,3.50
2022-12-28T01:43:34.194Z,3.50
2022-12-28T01:44:37.671Z,3.50
2022-12-28T01:45:41.159Z,3.00
2022-12-28T01:46:44.632Z,3.00
2022-12-28T01:47:48.093Z,2.50
2022-12-28T01:48:51.531Z,1.50
2022-12-28T01:49:54.995Z,2.00
2022-12-28T01:50:58.522Z,3.00
2022-12-28T01:52:01.945Z,3.00
2022-12-28T01:53:06.543Z,2.75
2022-12-28T01:54:10.403Z,3.00
2022-12-28T01:55:14.290Z,3.00
2022-12-28T01:56:17.933Z,2.50
2022-12-28T01:57:21.590Z,3.50
2022-12-28T01:58:25.201Z,3.00
2022-12-28T01:59:28.753Z,3.50
2022-12-28T02:00:32.230Z,4.00
2022-12-28T02:01:35.719Z,3.50
2022-12-28T02:02:39.354Z,3.75
2022-12-28T02:03:42.908Z,3.75
2022-12-28T02:04:46.377Z,3.50
2022-12-28T02:05:49.904Z,3.25
2022-12-28T02:06:53.462Z,5.00
2022-12-28T02:07:57.089Z,4.25
2022-12-28T02:09:00.536Z,3.50
2022-12-28T02:10:40.617Z,4.00
2022-12-28T02:11:08.867Z,4.00
2022-12-28T02:12:12.400Z,4.25
2022-12-28T02:13:16.110Z,4.00
2022-12-28T02:14:19.673Z,3.75
2022-12-28T02:15:23.412Z,3.50
2022-12-28T02:16:27.079Z,4.00
2022-12-28T02:17:30.533Z,3.00
2022-12-28T02:18:34.119Z,3.00
2022-12-28T02:19:37.649Z,2.50
2022-12-28T02:20:41.186Z,2.25
2022-12-28T02:21:44.771Z,3.50
2022-12-28T02:22:48.174Z,4.50
2022-12-28T02:23:51.827Z,3.25
2022-12-28T02:25:12.153Z,2.00
2022-12-28T02:26:00.753Z,3.00
2022-12-28T02:27:04.673Z,3.75
2022-12-28T02:28:08.480Z,3.00
2022-12-28T02:29:12.259Z,2.50
2022-12-28T02:30:15.777Z,3.00
2022-12-28T02:31:19.560Z,3.00
2022-12-28T02:32:23.231Z,3.00
2022-12-28T02:33:26.977Z,2.75
2022-12-28T02:34:30.715Z,3.00
2022-12-28T02:35:34.494Z,3.00
2022-12-28T02:36:38.258Z,3.00
2022-12-28T02:37:41.761Z,2.50
2022-12-28T02:38:45.168Z,3.50
2022-12-28T02:39:48.781Z,3.50
2022-12-28T02:40:52.248Z,3.50
2022-12-28T02:41:55.769Z,3.50
2022-12-28T02:42:59.210Z,4.00
2022-12-28T02:44:02.758Z,2.50
2022-12-28T02:45:06.186Z,2.50
2022-12-28T02:46:09.653Z,3.00
2022-12-28T02:47:13.216Z,3.00
2022-12-28T02:48:16.726Z,3.00
2022-12-28T02:49:20.189Z,3.75
2022-12-28T02:50:23.951Z,3.50
2022-12-28T02:51:27.690Z,3.50
2022-12-28T02:52:31.295Z,2.25
2022-12-28T02:53:34.979Z,2.00
2022-12-28T02:54:38.630Z,3.00
2022-12-28T02:55:42.450Z,3.00
2022-12-28T02:56:46.165Z,3.00
2022-12-28T02:57:49.857Z,3.50
2022-12-28T02:58:53.541Z,4.00
2022-12-28T02:59:57.228Z,2.50
2022-12-28T03:01:01.018Z,4.00
2022-12-28T03:02:05.029Z,3.00
2022-12-28T03:03:09.036Z,1.50
2022-12-28T03:04:12.788Z,3.00
2022-12-28T03:05:16.606Z,4.00
2022-12-28T03:06:23.213Z,3.00
2022-12-28T03:07:25.331Z,2.50
2022-12-28T03:08:28.956Z,2.25
2022-12-28T03:09:32.618Z,2.75
2022-12-28T03:10:36.285Z,3.00
2022-12-28T03:11:40.034Z,3.50
2022-12-28T03:12:43.755Z,2.25
2022-12-28T03:13:47.404Z,2.25
2022-12-28T03:14:51.215Z,3.50
2022-12-28T03:15:54.911Z,4.50
2022-12-28T03:16:58.725Z,1.75
2022-12-28T03:18:02.492Z,2.50
2022-12-28T03:19:06.223Z,3.00
2022-12-28T03:20:10.043Z,3.00
2022-12-28T03:21:13.796Z,3.00
2022-12-28T03:22:17.521Z,2.50
2022-12-28T03:23:21.142Z,2.50
2022-12-28T03:24:24.792Z,3.00
2022-12-28T03:25:28.173Z,3.00
2022-12-28T03:26:31.624Z,2.75
2022-12-28T03:27:35.115Z,3.50
2022-12-28T03:28:38.614Z,2.25
2022-12-28T03:29:42.092Z,2.50
2022-12-28T03:30:45.630Z,3.00
2022-12-28T03:31:49.193Z,3.00
2022-12-28T03:32:52.701Z,3.50
2022-12-28T03:33:56.256Z,3.00
2022-12-28T03:34:59.747Z,3.00
2022-12-28T03:36:03.373Z,3.00
2022-12-28T03:37:06.846Z,2.50
2022-12-28T03:38:10.319Z,2.00
2022-12-28T03:39:13.789Z,2.50
2022-12-28T03:40:17.267Z,3.00
2022-12-28T03:41:20.768Z,2.50
2022-12-28T03:42:24.476Z,2.00
2022-12-28T03:43:28.237Z,1.50
2022-12-28T03:44:32.013Z,3.00
2022-12-28T03:45:45.700Z,2.25
2022-12-28T03:46:40.733Z,2.25
2022-12-28T03:47:44.409Z,1.50
2022-12-28T03:48:48.132Z,3.00
2022-12-28T03:49:52.216Z,3.50
2022-12-28T03:50:55.883Z,3.00
2022-12-28T03:51:59.592Z,2.50
2022-12-28T03:53:03.306Z,2.50
2022-12-28T03:54:07.011Z,2.50
2022-12-28T03:55:10.669Z,3.00
2022-12-28T03:56:14.495Z,3.25
2022-12-28T03:57:18.274Z,2.50
2022-12-28T03:58:22.030Z,2.00
2022-12-28T03:59:25.697Z,2.75
2022-12-28T04:00:29.435Z,2.50
2022-12-28T04:01:33.251Z,2.00
2022-12-28T04:02:37.156Z,1.00
2022-12-28T04:03:40.667Z,2.00
2022-12-28T04:04:44.532Z,2.00
2022-12-28T04:05:48.157Z,2.00
2022-12-28T04:06:51.606Z,1.50
2022-12-28T04:07:55.267Z,1.50
2022-12-28T04:08:59.116Z,2.00
2022-12-28T04:10:02.928Z,2.50
2022-12-28T04:11:06.678Z,1.25
2022-12-28T04:12:10.373Z,1.75
2022-12-28T04:13:14.053Z,2.25
2022-12-28T04:14:18.992Z,3.00
2022-12-28T04:15:22.601Z,2.50
2022-12-28T04:16:26.468Z,2.00
2022-12-28T04:17:30.118Z,2.00
2022-12-28T04:18:33.799Z,3.00
2022-12-28T04:19:37.540Z,3.00
2022-12-28T04:20:41.254Z,2.50
2022-12-28T04:21:44.914Z,1.50
2022-12-28T04:22:48.318Z,2.50
2022-12-28T04:23:51.747Z,1.50
2022-12-28T04:24:55.331Z,2.50
2022-12-28T04:25:58.728Z,2.50
2022-12-28T04:27:02.234Z,3.00
2022-12-28T04:28:05.731Z,3.00
2022-12-28T04:29:09.376Z,2.00
2022-12-28T04:30:12.793Z,2.00
2022-12-28T04:31:16.272Z,2.00
2022-12-28T04:32:19.729Z,2.25
2022-12-28T04:33:23.071Z,2.50
2022-12-28T04:34:26.561Z,3.00
2022-12-28T04:35:29.976Z,3.00
2022-12-28T04:36:33.496Z,2.00
2022-12-28T04:37:36.972Z,2.50
2022-12-28T04:38:40.436Z,2.00
2022-12-28T04:39:56.116Z,3.00
2022-12-28T04:40:48.516Z,2.50
2022-12-28T04:41:52.117Z,1.75
2022-12-28T04:42:55.529Z,2.50
2022-12-28T04:43:58.975Z,2.25
2022-12-28T04:45:02.437Z,2.50
2022-12-28T04:46:06.101Z,2.25
2022-12-28T04:47:09.712Z,1.75
2022-12-28T04:48:13.126Z,3.00
2022-12-28T04:49:16.640Z,3.00
2022-12-28T04:50:20.384Z,1.75
2022-12-28T04:51:24.126Z,2.00
2022-12-28T04:52:27.849Z,2.00
2022-12-28T04:53:31.547Z,2.25
2022-12-28T04:54:35.225Z,2.00
2022-12-28T04:55:38.757Z,2.50
2022-12-28T04:56:42.557Z,2.00
2022-12-28T04:57:46.178Z,2.50
2022-12-28T04:58:49.707Z,2.00
2022-12-28T04:59:53.129Z,1.25
2022-12-28T05:00:56.896Z,3.00
2022-12-28T05:02:00.930Z,3.00
2022-12-28T05:03:04.860Z,2.00
2022-12-28T05:04:08.610Z,2.00
2022-12-28T05:05:12.087Z,2.50
2022-12-28T05:06:15.908Z,2.50
2022-12-28T05:07:19.943Z,1.50
2022-12-28T05:08:23.539Z,1.50
2022-12-28T05:09:27.236Z,2.00
2022-12-28T05:10:31.005Z,2.50
2022-12-28T05:11:34.656Z,2.50
2022-12-28T05:12:38.441Z,2.75
2022-12-28T05:13:42.040Z,2.50
2022-12-28T05:14:45.750Z,2.00
2022-12-28T05:15:49.538Z,1.00
2022-12-28T05:16:53.289Z,2.00
2022-12-28T05:17:56.926Z,2.00
2022-12-28T05:19:00.666Z,2.50
2022-12-28T05:20:04.365Z,2.00
2022-12-28T05:21:08.093Z,2.00
2022-12-28T05:22:11.846Z,2.00
2022-12-28T05:23:15.276Z,2.00
2022-12-28T05:24:18.704Z,1.60
2022-12-28T05:25:22.195Z,2.00
2022-12-28T05:26:25.674Z,2.50
2022-12-28T05:27:29.202Z,3.00
2022-12-28T05:28:32.767Z,3.50
2022-12-28T05:29:36.149Z,2.50
2022-12-28T05:30:39.627Z,2.00
2022-12-28T05:31:43.094Z,2.00
2022-12-28T05:32:46.617Z,1.50
2022-12-28T05:33:50.061Z,3.00
2022-12-28T05:34:53.500Z,2.00
2022-12-28T05:35:57.195Z,2.50
2022-12-28T05:37:01.009Z,2.25
2022-12-28T05:38:04.704Z,2.50
2022-12-28T05:39:08.175Z,4.25
2022-12-28T05:40:11.903Z,3.00
2022-12-28T05:41:15.734Z,2.50
2022-12-28T05:42:19.433Z,1.75
2022-12-28T05:43:23.077Z,3.00
2022-12-28T05:44:26.751Z,4.00
2022-12-28T05:45:30.537Z,3.25
2022-12-28T05:46:34.420Z,2.50
2022-12-28T05:47:38.193Z,2.50
2022-12-28T05:48:42.083Z,2.25
2022-12-28T05:49:45.852Z,3.00
2022-12-28T05:50:49.511Z,3.00
2022-12-28T05:51:53.194Z,2.00
2022-12-28T05:52:56.992Z,2.00
2022-12-28T05:54:00.768Z,3.50
2022-12-28T05:55:04.515Z,3.00
2022-12-28T05:56:12.254Z,1.50
2022-12-28T05:57:13.497Z,1.50
2022-12-28T05:58:17.321Z,1.25
2022-12-28T05:59:21.148Z,2.25
2022-12-28T06:00:24.817Z,3.20
2022-12-28T06:01:28.622Z,3.50
2022-12-28T06:02:32.515Z,3.00
2022-12-28T06:03:36.100Z,2.50
2022-12-28T06:04:39.603Z,2.25
2022-12-28T06:05:43.025Z,2.00
2022-12-28T06:06:46.561Z,2.50
2022-12-28T06:07:50.002Z,3.00
2022-12-28T06:08:53.436Z,3.00
2022-12-28T06:09:57.055Z,2.50
2022-12-28T06:11:00.550Z,2.75
2022-12-28T06:12:04.053Z,2.50
2022-12-28T06:13:07.567Z,2.00
2022-12-28T06:14:11.083Z,3.00
2022-12-28T06:15:14.631Z,2.00
2022-12-28T06:16:18.285Z,2.25
2022-12-28T06:17:21.816Z,2.75
2022-12-28T06:18:25.198Z,2.00
2022-12-28T06:19:28.708Z,2.25
2022-12-28T06:20:32.236Z,2.50
2022-12-28T06:21:35.793Z,3.00
2022-12-28T06:22:39.349Z,3.25
2022-12-28T06:23:42.829Z,2.00
2022-12-28T06:24:46.249Z,2.00
2022-12-28T06:25:49.771Z,2.75
2022-12-28T06:26:53.286Z,3.50
2022-12-28T06:27:56.755Z,3.00
2022-12-28T06:29:00.547Z,3.50
2022-12-28T06:30:04.305Z,2.50
2022-12-28T06:31:07.927Z,3.25
2022-12-28T06:32:11.605Z,3.00
2022-12-28T06:33:15.071Z,4.25
2022-12-28T06:34:18.991Z,3.50
2022-12-28T06:35:22.605Z,2.25
2022-12-28T06:36:26.019Z,3.50
2022-12-28T06:37:29.800Z,3.00
2022-12-28T06:38:33.472Z,2.50
2022-12-28T06:39:37.000Z,3.00
2022-12-28T06:41:11.791Z,2.00
2022-12-28T06:41:45.643Z,2.50
2022-12-28T06:42:49.248Z,2.00
2022-12-28T06:43:52.841Z,2.50
2022-12-28T06:44:56.490Z,3.25
2022-12-28T06:46:00.202Z,3.75
2022-12-28T06:47:03.969Z,4.25
2022-12-28T06:48:07.740Z,4.00
2022-12-28T06:49:14.639Z,3.75
2022-12-28T06:50:18.471Z,3.50
2022-12-28T06:51:22.188Z,2.50
2022-12-28T06:52:25.990Z,2.00
2022-12-28T06:53:29.676Z,2.75
2022-12-28T06:54:33.207Z,2.75
2022-12-28T06:55:36.661Z,2.75
2022-12-28T06:56:40.249Z,3.50
2022-12-28T06:57:44.078Z,3.25
2022-12-28T06:58:47.851Z,4.00
2022-12-28T06:59:51.650Z,3.50
2022-12-28T07:00:55.552Z,3.25
2022-12-28T07:01:59.592Z,2.25
2022-12-28T07:03:04.027Z,2.50
2022-12-28T07:04:07.914Z,3.50
2022-12-28T07:05:11.676Z,3.50
2022-12-28T07:06:15.154Z,3.00
2022-12-28T07:07:18.748Z,3.25
2022-12-28T07:08:22.687Z,3.50
2022-12-28T07:09:26.124Z,3.25
2022-12-28T07:10:29.700Z,3.25
2022-12-28T07:11:33.246Z,3.00
2022-12-28T07:12:36.695Z,2.25
2022-12-28T07:13:40.140Z,3.50
2022-12-28T07:14:43.654Z,4.00
2022-12-28T07:15:47.109Z,2.50
2022-12-28T07:16:50.578Z,2.50
2022-12-28T07:17:54.113Z,3.00
2022-12-28T07:18:57.676Z,3.00
2022-12-28T07:20:01.021Z,3.50
2022-12-28T07:21:04.512Z,2.50
2022-12-28T07:22:07.988Z,2.25
2022-12-28T07:23:11.616Z,3.00
2022-12-28T07:24:15.192Z,3.00
2022-12-28T07:25:18.913Z,3.50
2022-12-28T07:26:22.383Z,2.75
2022-12-28T07:27:25.896Z,2.50
2022-12-28T07:28:29.424Z,4.00
2022-12-28T07:29:32.969Z,3.25
2022-12-28T07:30:36.503Z,3.50
2022-12-28T07:31:44.875Z,3.00
2022-12-28T07:32:44.591Z,4.00
2022-12-28T07:33:48.115Z,3.00
2022-12-28T07:34:51.580Z,2.00
2022-12-28T07:35:55.195Z,2.75
2022-12-28T07:36:58.829Z,2.50
2022-12-28T07:38:02.362Z,2.75
2022-12-28T07:39:05.960Z,3.50
2022-12-28T07:40:09.479Z,3.50
2022-12-28T07:41:12.920Z,3.50
2022-12-28T07:42:16.466Z,4.00
2022-12-28T07:43:19.955Z,3.00
2022-12-28T07:44:26.674Z,2.50
2022-12-28T07:45:28.650Z,3.25
2022-12-28T07:46:32.481Z,3.50
2022-12-28T07:47:36.321Z,2.50
2022-12-28T07:48:40.133Z,4.50
2022-12-28T07:49:43.815Z,5.00
2022-12-28T07:50:47.438Z,4.00
2022-12-28T07:51:51.129Z,2.25
2022-12-28T07:52:54.521Z,3.75
2022-12-28T07:53:58.263Z,4.00
2022-12-28T07:55:01.966Z,3.75
2022-12-28T07:56:05.494Z,3.50
2022-12-28T07:57:09.006Z,4.00
2022-12-28T07:58:12.567Z,4.25
2022-12-28T07:59:16.133Z,5.00
2022-12-28T08:00:19.660Z,6.00
2022-12-28T08:01:23.514Z,4.75
2022-12-28T08:02:27.086Z,4.25
2022-12-28T08:03:30.879Z,4.50
2022-12-28T08:04:34.541Z,5.00
2022-12-28T08:05:38.110Z,3.75
2022-12-28T08:06:41.564Z,4.00
2022-12-28T08:07:45.055Z,4.00
2022-12-28T08:08:48.648Z,3.00
2022-12-28T08:09:52.107Z,3.50
2022-12-28T08:10:55.553Z,4.00
2022-12-28T08:11:59.136Z,4.50
2022-12-28T08:13:02.581Z,4.00
2022-12-28T08:14:06.042Z,3.50
2022-12-28T08:15:09.527Z,2.50
2022-12-28T08:16:13.060Z,2.75
2022-12-28T08:17:21.040Z,3.50
2022-12-28T08:18:21.775Z,4.00
2022-12-28T08:19:25.312Z,3.25
2022-12-28T08:20:28.871Z,3.50
2022-12-28T08:21:32.836Z,4.00
2022-12-28T08:22:36.530Z,6.00
2022-12-28T08:23:40.220Z,4.00
2022-12-28T08:24:43.908Z,4.00
2022-12-28T08:25:47.690Z,4.25
2022-12-28T08:26:51.166Z,4.50
2022-12-28T08:27:55.248Z,4.50
2022-12-28T08:28:58.895Z,4.25
2022-12-28T08:30:02.669Z,3.50
2022-12-28T08:31:06.273Z,5.00
2022-12-28T08:32:10.077Z,4.50
2022-12-28T08:33:13.854Z,3.75
2022-12-28T08:34:17.557Z,3.50
2022-12-28T08:35:21.036Z,2.50
2022-12-28T08:36:24.732Z,3.50
2022-12-28T08:37:28.495Z,4.00
2022-12-28T08:38:32.253Z,4.25
2022-12-28T08:39:36.016Z,3.50
2022-12-28T08:40:39.378Z,3.00
2022-12-28T08:41:43.075Z,3.50
2022-12-28T08:42:47.155Z,3.50
2022-12-28T08:43:51.111Z,4.50
2022-12-28T08:44:54.489Z,4.25
2022-12-28T08:45:58.531Z,4.50
2022-12-28T08:47:02.432Z,4.50
2022-12-28T08:48:06.115Z,4.00
2022-12-28T08:49:09.814Z,3.75
2022-12-28T08:50:16.905Z,3.00
2022-12-28T08:51:18.574Z,2.75
2022-12-28T08:52:22.285Z,3.00
2022-12-28T08:53:25.926Z,3.00
2022-12-28T08:54:29.571Z,4.00
2022-12-28T08:55:33.017Z,4.00
2022-12-28T08:56:36.510Z,3.50
2022-12-28T08:57:40.003Z,4.25
2022-12-28T08:58:43.485Z,4.50
2022-12-28T08:59:47.051Z,3.75
2022-12-28T09:00:50.498Z,2.75
2022-12-28T09:01:54.125Z,2.50
2022-12-28T09:02:57.676Z,4.50
2022-12-28T09:04:01.299Z,4.25
2022-12-28T09:05:04.758Z,5.00
2022-12-28T09:06:08.278Z,4.75
2022-12-28T09:07:11.889Z,4.00
2022-12-28T09:08:15.353Z,3.75
2022-12-28T09:09:18.920Z,3.00
2022-12-28T09:10:22.401Z,3.00
2022-12-28T09:11:25.815Z,3.75
2022-12-28T09:12:29.263Z,4.50
2022-12-28T09:13:32.716Z,4.25
2022-12-28T09:14:36.270Z,2.75
2022-12-28T09:15:39.740Z,3.00
2022-12-28T09:16:43.563Z,4.50
2022-12-28T09:17:47.348Z,4.25
2022-12-28T09:18:51.293Z,2.75
2022-12-28T09:19:54.752Z,4.25
2022-12-28T09:20:58.261Z,4.00
2022-12-28T09:22:02.071Z,4.50
2022-12-28T09:23:05.504Z,5.00
2022-12-28T09:24:09.154Z,5.00
2022-12-28T09:25:12.860Z,3.25
2022-12-28T09:26:16.785Z,3.00
2022-12-28T09:27:20.640Z,3.50
2022-12-28T09:28:24.379Z,3.50
2022-12-28T09:29:27.880Z,3.50
2022-12-28T09:30:31.354Z,3.00
2022-12-28T09:31:35.127Z,4.75
2022-12-28T09:32:38.835Z,3.75
2022-12-28T09:34:13.873Z,3.00
2022-12-28T09:34:47.190Z,3.50
2022-12-28T09:35:51.098Z,2.75
2022-12-28T09:36:54.877Z,3.75
2022-12-28T09:37:58.590Z,3.75
2022-12-28T09:39:02.456Z,4.00
2022-12-28T09:40:06.264Z,3.50
2022-12-28T09:41:09.972Z,3.00
2022-12-28T09:42:13.830Z,3.50
2022-12-28T09:43:17.477Z,3.75
2022-12-28T09:44:21.323Z,4.00
2022-12-28T09:45:24.691Z,4.50
2022-12-28T09:46:28.263Z,3.50
2022-12-28T09:47:32.012Z,4.00
2022-12-28T09:48:35.955Z,5.00
2022-12-28T09:49:39.388Z,4.75
2022-12-28T09:50:43.168Z,4.50
2022-12-28T09:51:46.870Z,4.50
2022-12-28T09:52:50.321Z,5.00
2022-12-28T09:53:53.937Z,4.50
2022-12-28T09:54:57.716Z,5.00
2022-12-28T09:56:01.411Z,6.00
2022-12-28T09:57:05.152Z,4.50
2022-12-28T09:58:08.596Z,3.50
2022-12-28T09:59:12.269Z,4.00
2022-12-28T10:00:15.710Z,4.00
2022-12-28T10:01:20.434Z,4.00
2022-12-28T10:02:24.029Z,3.50
2022-12-28T10:03:27.623Z,2.75
2022-12-28T10:04:31.092Z,3.25
2022-12-28T10:05:34.536Z,5.00
2022-12-28T10:06:38.073Z,5.25
2022-12-28T10:07:41.464Z,6.00
2022-12-28T10:08:44.910Z,4.50
2022-12-28T10:09:48.605Z,3.00
2022-12-28T10:10:52.118Z,5.00
2022-12-28T10:11:55.544Z,5.50
2022-12-28T10:12:59.002Z,4.50
2022-12-28T10:14:02.505Z,5.00
2022-12-28T10:15:05.939Z,4.25
2022-12-28T10:16:09.380Z,3.75
2022-12-28T10:17:12.840Z,3.50
2022-12-28T10:18:16.322Z,4.50
2022-12-28T10:19:19.757Z,5.00
2022-12-28T10:20:23.319Z,5.00
2022-12-28T10:21:32.496Z,3.75
2022-12-28T10:22:31.528Z,4.50
2022-12-28T10:23:38.263Z,4.50
2022-12-28T10:24:39.835Z,4.25
2022-12-28T10:25:43.383Z,3.50
2022-12-28T10:26:46.946Z,4.00
2022-12-28T10:27:50.388Z,3.25
2022-12-28T10:28:53.850Z,3.00
2022-12-28T10:29:57.307Z,4.00
2022-12-28T10:31:00.887Z,4.00
2022-12-28T10:32:04.387Z,3.50
2022-12-28T10:33:09.747Z,4.25
2022-12-28T10:34:12.958Z,4.25
2022-12-28T10:35:16.862Z,3.50
2022-12-28T10:36:20.764Z,4.50
2022-12-28T10:37:24.199Z,4.25
2022-12-28T10:38:27.884Z,3.50
2022-12-28T10:39:31.465Z,3.50
2022-12-28T10:40:35.379Z,4.50
2022-12-28T10:41:38.986Z,5.50
2022-12-28T10:42:42.624Z,5.25
2022-12-28T10:43:46.352Z,3.00
2022-12-28T10:44:49.872Z,3.00
2022-12-28T10:45:53.548Z,3.00
2022-12-28T10:46:56.935Z,3.25
2022-12-28T10:48:00.815Z,3.50
2022-12-28T10:49:04.588Z,3.50
2022-12-28T10:50:36.225Z,4.00
2022-12-28T10:51:13.214Z,4.00
2022-12-28T10:52:17.075Z,6.00
2022-12-28T10:53:21.359Z,4.00
2022-12-28T10:54:27.981Z,4.00
2022-12-28T10:55:29.755Z,4.00
2022-12-28T10:56:33.325Z,4.75
2022-12-28T10:57:38.056Z,5.00
2022-12-28T10:58:41.321Z,3.75
2022-12-28T10:59:44.781Z,5.00
2022-12-28T11:00:52.217Z,5.50
2022-12-28T11:01:53.101Z,5.00
2022-12-28T11:02:56.927Z,5.50
2022-12-28T11:04:00.486Z,4.00
2022-12-28T11:05:04.088Z,4.00
2022-12-28T11:06:07.524Z,4.75
2022-12-28T11:07:11.034Z,4.75
2022-12-28T11:08:14.476Z,4.00
2022-12-28T11:09:17.915Z,3.50
2022-12-28T11:10:21.689Z,2.50
2022-12-28T11:11:25.458Z,4.50
2022-12-28T11:12:29.195Z,4.50
2022-12-28T11:13:32.753Z,4.25
2022-12-28T11:14:36.411Z,4.50
2022-12-28T11:15:40.112Z,4.25
2022-12-28T11:16:43.752Z,4.50
2022-12-28T11:17:47.560Z,4.75
2022-12-28T11:18:51.397Z,4.00
2022-12-28T11:19:55.088Z,4.00
2022-12-28T11:20:58.763Z,5.00
2022-12-28T11:22:02.594Z,5.00
2022-12-28T11:23:06.466Z,4.00
2022-12-28T11:24:10.295Z,3.50
2022-12-28T11:25:13.960Z,4.75
2022-12-28T11:26:17.793Z,4.75
2022-12-28T11:27:21.419Z,4.50
2022-12-28T11:28:25.355Z,5.25
2022-12-28T11:29:29.118Z,5.00
2022-12-28T11:30:32.822Z,5.00
2022-12-28T11:31:36.650Z,5.25
2022-12-28T11:32:40.304Z,4.50
2022-12-28T11:33:43.903Z,4.00
2022-12-28T11:34:47.759Z,4.00
2022-12-28T11:35:53.173Z,3.50
2022-12-28T11:36:57.020Z,5.25
2022-12-28T11:38:00.666Z,4.50
2022-12-28T11:39:04.525Z,4.00
2022-12-28T11:40:08.135Z,4.25
2022-12-28T11:41:11.678Z,3.75
2022-12-28T11:43:19.879Z,4.00
2022-12-28T11:44:23.287Z,4.50
2022-12-28T11:45:26.827Z,4.50
2022-12-28T11:46:30.298Z,4.50
2022-12-28T11:47:33.788Z,5.25
2022-12-28T11:48:37.208Z,5.50
2022-12-28T11:49:40.676Z,5.50
2022-12-28T11:50:44.203Z,4.50
2022-12-28T11:51:47.649Z,3.75
2022-12-28T11:52:51.189Z,4.25
2022-12-28T11:53:54.944Z,4.50
2022-12-28T11:54:58.510Z,3.50
2022-12-28T11:56:02.000Z,3.00
2022-12-28T11:57:05.436Z,4.50
2022-12-28T11:58:08.900Z,3.80
2022-12-28T11:59:14.907Z,3.00
2022-12-28T12:00:22.369Z,4.25
2022-12-28T12:01:23.082Z,4.00
2022-12-28T12:02:26.610Z,4.00
2022-12-28T12:03:30.253Z,5.00
2022-12-28T12:04:33.924Z,3.75
2022-12-28T12:05:37.605Z,4.00
2022-12-28T12:06:41.072Z,4.00
2022-12-28T12:07:44.474Z,5.00
2022-12-28T12:08:47.938Z,5.00
2022-12-28T12:09:51.583Z,4.00
2022-12-28T12:10:55.309Z,4.50
2022-12-28T12:11:59.179Z,6.00
2022-12-28T12:13:03.355Z,5.00
2022-12-28T12:14:06.994Z,4.00
2022-12-28T12:15:10.605Z,3.00
2022-12-28T12:16:14.345Z,4.25
2022-12-28T12:17:17.996Z,6.00
2022-12-28T12:18:21.686Z,5.50
2022-12-28T12:19:25.216Z,5.25
2022-12-28T12:20:28.974Z,5.00
2022-12-28T12:21:32.643Z,4.00
2022-12-28T12:22:36.341Z,4.50
2022-12-28T12:23:48.996Z,4.00
2022-12-28T12:24:53.485Z,4.00
2022-12-28T12:25:58.323Z,4.50
2022-12-28T12:27:06.031Z,4.00
2022-12-28T12:28:08.569Z,4.50
2022-12-28T12:29:13.681Z,4.75
2022-12-28T12:30:18.410Z,4.25
2022-12-28T12:31:22.985Z,4.25
2022-12-28T12:32:27.251Z,5.00
2022-12-28T12:33:31.945Z,4.50
2022-12-28T12:34:36.684Z,5.00
2022-12-28T12:35:41.510Z,5.00
2022-12-28T12:36:46.819Z,5.50
2022-12-28T12:37:52.258Z,4.50
2022-12-28T12:38:56.561Z,4.50
2022-12-28T12:40:01.081Z,5.25
2022-12-28T12:41:05.482Z,5.00
2022-12-28T12:42:09.798Z,4.50
2022-12-28T12:43:14.128Z,3.50
2022-12-28T12:44:18.314Z,4.50
2022-12-28T12:45:22.593Z,4.00
2022-12-28T12:46:26.886Z,3.25
2022-12-28T12:47:30.893Z,4.75
2022-12-28T12:48:35.844Z,5.00
2022-12-28T12:49:40.468Z,4.00
2022-12-28T12:50:45.335Z,3.25
2022-12-28T12:51:50.123Z,4.25
2022-12-28T12:52:54.310Z,5.00
2022-12-28T12:53:58.426Z,3.50
2022-12-28T12:55:02.928Z,4.00
2022-12-28T12:56:07.059Z,3.75
2022-12-28T12:57:11.645Z,4.00
2022-12-28T12:58:16.665Z,3.25
2022-12-28T12:59:21.949Z,3.50
2022-12-28T13:00:26.613Z,4.75
2022-12-28T13:01:31.241Z,5.00
2022-12-28T13:02:38.203Z,4.75
2022-12-28T13:03:42.518Z,3.50
2022-12-28T13:04:46.734Z,5.25
2022-12-28T13:05:51.577Z,5.50
2022-12-28T13:06:56.098Z,5.00
2022-12-28T13:08:00.896Z,5.00
2022-12-28T13:09:05.969Z,4.25
2022-12-28T13:10:10.993Z,3.50
2022-12-28T13:11:15.337Z,6.00
2022-12-28T13:12:19.722Z,5.50
2022-12-28T13:13:23.861Z,5.00
2022-12-28T13:14:28.276Z,5.00
2022-12-28T13:15:33.055Z,3.50
2022-12-28T13:16:37.188Z,5.67
2022-12-28T13:17:41.435Z,5.50
2022-12-28T13:18:46.374Z,4.00
2022-12-28T13:19:50.991Z,3.00
2022-12-28T13:20:55.894Z,4.00
2022-12-28T13:22:00.197Z,5.50
2022-12-28T13:23:04.475Z,5.00
2022-12-28T13:24:08.837Z,4.50
2022-12-28T13:25:12.427Z,4.75
2022-12-28T13:26:15.909Z,4.00
2022-12-28T13:27:19.479Z,3.75
2022-12-28T13:28:23.318Z,4.75
2022-12-28T13:29:26.711Z,5.50
2022-12-28T13:30:30.588Z,5.00
2022-12-28T13:31:34.485Z,3.50
2022-12-28T13:32:38.732Z,4.00
2022-12-28T13:33:42.616Z,4.00
2022-12-28T13:34:46.111Z,4.50
2022-12-28T13:35:50.035Z,4.50
2022-12-28T13:36:53.778Z,4.00
2022-12-28T13:37:57.497Z,3.25
2022-12-28T13:39:01.253Z,3.67
2022-12-28T13:40:04.894Z,3.50
2022-12-28T13:41:08.534Z,3.75
2022-12-28T13:42:12.280Z,4.00
2022-12-28T13:43:16.012Z,5.00
2022-12-28T13:44:19.550Z,4.00
2022-12-28T13:45:23.314Z,4.00
2022-12-28T13:46:27.088Z,5.00
2022-12-28T13:47:30.784Z,4.00
2022-12-28T13:48:34.549Z,4.50
2022-12-28T13:49:38.337Z,4.00
2022-12-28T13:50:42.000Z,3.75
2022-12-28T13:51:51.330Z,5.00
2022-12-28T13:52:50.329Z,4.25
2022-12-28T13:53:54.069Z,5.00
2022-12-28T13:54:57.644Z,5.25
2022-12-28T13:56:01.361Z,4.75
2022-12-28T13:57:36.575Z,4.00
2022-12-28T13:58:09.686Z,4.00
2022-12-28T13:59:13.106Z,4.50
2022-12-28T14:00:16.777Z,3.75
2022-12-28T14:01:20.512Z,4.00
2022-12-28T14:02:24.488Z,4.50
2022-12-28T14:03:28.262Z,4.50
2022-12-28T14:05:36.809Z,4.00
2022-12-28T14:06:40.413Z,6.00
2022-12-28T14:07:43.874Z,5.25
2022-12-28T14:08:47.375Z,4.50
2022-12-28T14:09:50.760Z,4.50
2022-12-28T14:10:54.233Z,4.00